Time;durP1;ratioP1;P1;durP2;ratioP2;P2;SDS_P1;SDS_P2;PMS_P1;PMS_P2;Temp;Humidity;BMP_temperature;BMP_pressure;BME280_temperature;BME280_humidity;BME280_pressure;Samples;Min_cycle;Max_cycle;Signal;HPM_P1;HPM_P2
2023/10/15 00:00:12;;;;;;;8.50;1.40;;;7.30;99.90;;;;;;4961193;28;20089;-69
2023/10/15 00:02:39;;;;;;;7.65;1.70;;;7.30;99.90;;;;;;4961958;28;20441;-70
2023/10/15 00:05:05;;;;;;;7.00;1.25;;;7.40;99.90;;;;;;4961807;28;20118;-69
2023/10/15 00:07:31;;;;;;;6.93;1.30;;;7.40;99.90;;;;;;4959695;28;20461;-68
2023/10/15 00:09:57;;;;;;;10.02;1.30;;;7.40;99.90;;;;;;4960069;28;20139;-69
2023/10/15 00:12:23;;;;;;;12.18;1.42;;;7.40;99.90;;;;;;4959409;28;20106;-69
2023/10/15 00:14:50;;;;;;;7.78;1.30;;;7.40;99.90;;;;;;4960187;28;20074;-69
2023/10/15 00:17:16;;;;;;;13.07;1.70;;;7.40;99.90;;;;;;4960175;28;20043;-69
2023/10/15 00:19:42;;;;;;;12.50;1.13;;;7.40;99.90;;;;;;4963085;28;20498;-69
2023/10/15 00:22:07;;;;;;;10.55;1.80;;;7.40;99.90;;;;;;4962469;28;20078;-71
2023/10/15 00:24:33;;;;;;;9.27;1.20;;;7.40;99.90;;;;;;4960532;28;20050;-70
2023/10/15 00:26:59;;;;;;;8.38;1.13;;;7.40;99.90;;;;;;4959850;28;20830;-69
2023/10/15 00:29:25;;;;;;;8.90;1.30;;;7.40;99.90;;;;;;4960012;28;20138;-71
2023/10/15 00:31:51;;;;;;;9.50;1.27;;;7.30;99.90;;;;;;4962482;28;20102;-69
2023/10/15 00:34:17;;;;;;;10.70;1.10;;;7.30;99.90;;;;;;4962444;28;20442;-69
2023/10/15 00:36:43;;;;;;;5.97;1.30;;;7.30;99.90;;;;;;4960603;28;20113;-68
2023/10/15 00:39:19;;;;;;;7.32;1.00;;;7.30;99.90;;;;;;4959452;28;20065;-68
2023/10/15 00:41:49;;;;;;;7.15;1.00;;;7.30;99.90;;;;;;4961283;28;20411;-69
2023/10/15 00:44:16;;;;;;;12.48;1.17;;;7.30;99.90;;;;;;4957235;28;20142;-68
2023/10/15 00:46:45;;;;;;;6.43;1.15;;;7.40;99.90;;;;;;4959484;28;20047;-73
2023/10/15 00:49:14;;;;;;;9.98;1.30;;;7.30;99.90;;;;;;4962431;28;20118;-70
2023/10/15 00:51:44;;;;;;;8.77;1.23;;;7.30;99.90;;;;;;4945055;28;20755;-69
2023/10/15 00:54:15;;;;;;;10.20;1.30;;;7.30;99.90;;;;;;4951365;28;20116;-70
2023/10/15 00:56:44;;;;;;;9.82;1.23;;;7.30;99.90;;;;;;4955645;28;20479;-69
2023/10/15 00:59:21;;;;;;;7.13;1.00;;;7.30;99.90;;;;;;4961951;28;20046;-68
2023/10/15 01:04:31;;;;;;;5.07;1.20;;;7.20;99.90;;;;;;4952823;28;20055;-68
2023/10/15 01:07:01;;;;;;;12.13;0.98;;;7.20;99.90;;;;;;4959162;28;20071;-72
2023/10/15 01:11:56;;;;;;;5.68;1.10;;;7.10;99.90;;;;;;4959324;28;20487;-72
2023/10/15 01:16:54;;;;;;;9.55;1.00;;;7.10;99.90;;;;;;4961733;28;20043;-70
2023/10/15 01:19:31;;;;;;;7.75;0.93;;;7.10;99.90;;;;;;4961140;28;20058;-71
2023/10/15 01:21:58;;;;;;;9.95;1.35;;;7.00;99.90;;;;;;4941880;29;20055;-69
2023/10/15 01:24:33;;;;;;;5.95;1.08;;;7.10;99.90;;;;;;4962623;28;20129;-69
2023/10/15 01:27:04;;;;;;;4.43;0.70;;;7.20;99.90;;;;;;4947902;28;20121;-68
2023/10/15 01:29:33;;;;;;;4.70;0.90;;;7.00;99.90;;;;;;4931070;28;20063;-69
2023/10/15 01:32:03;;;;;;;11.45;0.88;;;7.00;99.90;;;;;;4965315;28;20393;-69
2023/10/15 01:34:37;;;;;;;5.78;0.98;;;7.00;99.90;;;;;;4944730;28;20415;-68
2023/10/15 01:37:15;;;;;;;10.20;1.00;;;6.90;99.90;;;;;;4952802;28;20090;-71
2023/10/15 01:39:48;;;;;;;9.68;1.25;;;7.00;99.90;;;;;;4951729;28;20058;-73
2023/10/15 01:50:16;;;;;;;6.82;0.90;;;7.00;99.90;;;;;;4965969;28;20051;-71
2023/10/15 01:52:42;;;;;;;6.38;1.08;;;7.10;99.90;;;;;;4965700;28;20043;-69
2023/10/15 01:55:08;;;;;;;7.07;0.93;;;7.00;99.90;;;;;;4959828;28;20509;-72
2023/10/15 01:57:39;;;;;;;7.07;1.00;;;7.10;99.90;;;;;;4964800;28;20047;-73
2023/10/15 02:02:53;;;;;;;11.45;1.00;;;7.10;99.90;;;;;;4968132;28;20101;-69
2023/10/15 02:05:30;;;;;;;7.80;1.17;;;7.10;99.90;;;;;;4942731;28;20063;-70
2023/10/15 02:07:56;;;;;;;4.05;0.85;;;7.00;99.90;;;;;;4971621;28;20557;-70
2023/10/15 02:10:28;;;;;;;10.82;1.05;;;7.00;99.90;;;;;;4968694;28;20548;-69
2023/10/15 02:13:04;;;;;;;5.13;0.90;;;7.00;99.90;;;;;;4971556;28;20035;-69
2023/10/15 02:15:39;;;;;;;4.28;0.93;;;7.00;99.90;;;;;;4963467;28;20070;-68
2023/10/15 02:18:17;;;;;;;7.68;0.93;;;7.00;99.90;;;;;;4968166;28;20054;-69
2023/10/15 02:21:00;;;;;;;6.18;0.80;;;7.20;99.90;;;;;;4965658;28;20058;-70
2023/10/15 02:23:26;;;;;;;9.10;0.98;;;7.00;99.90;;;;;;4948716;28;20047;-69
2023/10/15 02:25:58;;;;;;;7.45;1.33;;;7.10;99.90;;;;;;4971366;28;20045;-70
2023/10/15 02:28:31;;;;;;;12.65;1.15;;;7.00;99.90;;;;;;4971477;28;20457;-69
2023/10/15 02:33:33;;;;;;;7.53;1.00;;;7.00;99.90;;;;;;4954100;28;20109;-71
2023/10/15 02:35:59;;;;;;;12.20;1.15;;;7.10;99.90;;;;;;4970859;28;20046;-69
2023/10/15 02:38:35;;;;;;;8.18;1.13;;;7.10;99.90;;;;;;4964405;28;20053;-68
2023/10/15 02:41:05;;;;;;;5.70;0.85;;;7.10;99.90;;;;;;4964400;28;20494;-68
2023/10/15 02:43:32;;;;;;;2.30;0.70;;;7.00;99.90;;;;;;4971411;28;20165;-69
2023/10/15 02:46:01;;;;;;;4.32;0.60;;;7.40;99.90;;;;;;4959133;28;20038;-69
2023/10/15 02:48:32;;;;;;;7.35;0.95;;;7.20;99.90;;;;;;4953096;28;20047;-69
2023/10/15 02:51:07;;;;;;;3.42;0.55;;;7.00;99.90;;;;;;4953366;28;20055;-72
2023/10/15 02:53:35;;;;;;;4.70;0.75;;;6.90;99.90;;;;;;4967447;28;20047;-69
2023/10/15 02:56:10;;;;;;;5.65;0.60;;;7.00;99.90;;;;;;4971250;28;20320;-69
2023/10/15 02:58:36;;;;;;;3.33;0.70;;;6.90;99.90;;;;;;4968906;28;20059;-68
2023/10/15 03:01:23;;;;;;;5.70;0.73;;;6.90;99.90;;;;;;4963957;28;20450;-69
2023/10/15 03:03:53;;;;;;;4.03;0.70;;;6.90;99.90;;;;;;4969756;28;20298;-70
2023/10/15 03:08:52;;;;;;;1.92;0.50;;;7.10;99.90;;;;;;4966191;28;20055;-69
2023/10/15 03:11:20;;;;;;;2.60;0.70;;;6.90;99.90;;;;;;4949245;28;20107;-70
2023/10/15 03:13:50;;;;;;;3.45;0.50;;;6.90;99.90;;;;;;4962453;28;20121;-70
2023/10/15 03:16:35;;;;;;;7.45;0.60;;;7.00;99.90;;;;;;4929761;28;20147;-70
2023/10/15 03:19:09;;;;;;;;;;;6.90;99.90;;;;;;4960828;28;20581;-71
2023/10/15 03:21:39;;;;;;;4.95;0.73;;;7.00;99.90;;;;;;4960100;28;20024;-68
2023/10/15 03:24:05;;;;;;;2.55;0.50;;;7.00;99.90;;;;;;4956530;28;20054;-69
2023/10/15 03:26:34;;;;;;;2.08;0.40;;;7.00;99.90;;;;;;4965787;28;20043;-70
2023/10/15 03:29:13;;;;;;;2.03;0.47;;;7.00;99.90;;;;;;4963639;28;20113;-71
2023/10/15 03:31:44;;;;;;;2.92;0.60;;;7.00;99.90;;;;;;4962389;28;20043;-67
2023/10/15 03:36:47;;;;;;;2.03;0.57;;;7.00;99.90;;;;;;4970187;28;20501;-70
2023/10/15 03:39:17;;;;;;;4.25;0.63;;;7.00;99.90;;;;;;4966078;28;20414;-69
2023/10/15 03:41:52;;;;;;;4.40;0.60;;;7.00;99.90;;;;;;4951042;28;20053;-69
2023/10/15 03:44:43;;;;;;;2.35;0.50;;;7.00;99.90;;;;;;4949549;28;20101;-71
2023/10/15 03:47:04;;;;;;;5.28;0.60;;;7.00;99.90;;;;;;4956816;28;20513;-69
2023/10/15 03:49:31;;;;;;;3.20;0.60;;;7.00;99.90;;;;;;4947937;29;20063;-69
2023/10/15 03:51:57;;;;;;;2.08;0.43;;;6.90;99.90;;;;;;4964006;28;20402;-69
2023/10/15 03:54:23;;;;;;;5.25;0.60;;;7.00;99.90;;;;;;4960122;28;20050;-68
2023/10/15 03:56:52;;;;;;;3.40;0.45;;;7.00;99.90;;;;;;4950124;28;20060;-68
2023/10/15 03:59:19;;;;;;;3.95;0.80;;;7.00;99.90;;;;;;4970232;28;20050;-69
2023/10/15 04:01:51;;;;;;;5.05;0.63;;;7.00;99.90;;;;;;4969560;28;20438;-68
2023/10/15 04:04:18;;;;;;;5.05;0.68;;;7.00;99.90;;;;;;4958476;28;20046;-70
2023/10/15 04:07:03;;;;;;;1.73;0.40;;;7.00;99.90;;;;;;4966818;28;20142;-69
2023/10/15 04:09:33;;;;;;;;;;;7.00;99.90;;;;;;4961012;28;20106;-68
2023/10/15 04:11:59;;;;;;;4.88;0.45;;;7.10;99.90;;;;;;4949337;28;19926;-69
2023/10/15 04:14:32;;;;;;;2.58;0.50;;;7.00;99.90;;;;;;4965643;28;20122;-69
2023/10/15 04:16:58;;;;;;;1.77;0.40;;;6.90;99.90;;;;;;4962070;28;20109;-69
2023/10/15 04:19:30;;;;;;;2.78;0.52;;;6.90;99.90;;;;;;4952556;28;20050;-68
2023/10/15 04:22:14;;;;;;;4.82;0.57;;;6.90;99.90;;;;;;4966064;28;20387;-68
2023/10/15 04:24:50;;;;;;;3.10;0.45;;;6.80;99.90;;;;;;4942757;28;20178;-69
2023/10/15 04:27:17;;;;;;;2.17;0.55;;;6.90;99.90;;;;;;4965600;28;20061;-70
2023/10/15 04:29:49;;;;;;;2.92;0.47;;;6.80;99.90;;;;;;4948743;28;20054;-68
2023/10/15 04:32:22;;;;;;;3.72;0.43;;;6.80;99.90;;;;;;4966613;28;20054;-68
2023/10/15 04:34:50;;;;;;;4.50;1.05;;;6.80;99.90;;;;;;4959008;28;20043;-68
2023/10/15 04:37:16;;;;;;;3.17;0.68;;;6.80;99.90;;;;;;4949550;28;20050;-68
2023/10/15 04:39:53;;;;;;;4.35;0.60;;;6.80;99.90;;;;;;4969983;28;20047;-67
2023/10/15 04:45:20;;;;;;;3.65;0.40;;;7.00;99.90;;;;;;4905637;29;20111;-68
2023/10/15 04:47:59;;;;;;;5.28;0.50;;;6.80;99.90;;;;;;4898426;29;20064;-68
2023/10/15 04:50:36;;;;;;;2.08;0.47;;;6.70;99.90;;;;;;4888429;29;20064;-69
2023/10/15 04:53:23;;;;;;;3.47;0.50;;;6.80;99.90;;;;;;4891091;29;20044;-70
2023/10/15 04:55:50;;;;;;;3.17;0.65;;;6.70;99.90;;;;;;4902326;29;20113;-71
2023/10/15 04:58:15;;;;;;;7.18;0.60;;;6.60;99.90;;;;;;4898892;29;20052;-71
2023/10/15 05:00:43;;;;;;;3.03;0.50;;;6.60;99.90;;;;;;4888696;29;20048;-68
2023/10/15 05:03:09;;;;;;;4.40;0.57;;;6.60;99.90;;;;;;4903874;29;20060;-69
2023/10/15 05:05:36;;;;;;;3.42;0.80;;;6.60;99.90;;;;;;4903809;29;20052;-68
2023/10/15 05:08:02;;;;;;;7.57;0.90;;;6.70;99.90;;;;;;4887318;29;20061;-69
2023/10/15 05:10:35;;;;;;;9.38;0.70;;;6.70;99.90;;;;;;4905099;29;20052;-69
2023/10/15 05:13:00;;;;;;;3.08;0.45;;;6.60;99.90;;;;;;4911914;29;20061;-69
2023/10/15 05:15:26;;;;;;;9.40;1.08;;;6.70;99.90;;;;;;4913153;29;20507;-69
2023/10/15 05:17:52;;;;;;;7.55;0.82;;;6.80;99.90;;;;;;4911369;29;20385;-69
2023/10/15 05:20:20;;;;;;;6.22;0.68;;;6.70;99.90;;;;;;4910500;29;20052;-72
2023/10/15 05:22:47;;;;;;;5.82;0.70;;;6.70;99.90;;;;;;4956395;28;20470;-69
2023/10/15 05:25:17;;;;;;;6.80;0.70;;;6.70;99.90;;;;;;4954908;28;20051;-73
2023/10/15 05:27:45;;;;;;;3.92;0.77;;;6.60;99.90;;;;;;4972749;28;20046;-73
2023/10/15 05:30:12;;;;;;;5.80;0.70;;;6.60;99.90;;;;;;4964304;28;20431;-69
2023/10/15 05:32:38;;;;;;;4.00;0.57;;;6.60;99.90;;;;;;4947685;28;20038;-70
2023/10/15 05:35:08;;;;;;;6.32;0.68;;;6.60;99.90;;;;;;4955236;28;20453;-69
2023/10/15 05:37:36;;;;;;;3.05;0.50;;;6.60;99.90;;;;;;4972437;28;20125;-68
2023/10/15 05:40:03;;;;;;;7.22;0.98;;;6.60;99.90;;;;;;4952653;28;20125;-68
2023/10/15 05:42:29;;;;;;;6.32;1.08;;;6.60;99.90;;;;;;4970143;28;20051;-69
2023/10/15 05:44:56;;;;;;;2.78;0.50;;;6.60;99.90;;;;;;4972590;28;20049;-69
2023/10/15 05:47:22;;;;;;;3.88;0.77;;;6.60;99.90;;;;;;4971913;28;20113;-69
2023/10/15 05:49:48;;;;;;;9.40;1.48;;;6.60;99.90;;;;;;4964354;28;20038;-70
2023/10/15 05:52:14;;;;;;;6.40;0.70;;;6.60;99.90;;;;;;4967073;28;20105;-68
2023/10/15 05:54:41;;;;;;;12.25;1.23;;;6.60;99.90;;;;;;4963335;28;20498;-69
2023/10/15 05:57:06;;;;;;;6.93;0.90;;;6.60;99.90;;;;;;4965813;28;20050;-70
2023/10/15 05:59:35;;;;;;;7.30;0.88;;;6.60;99.90;;;;;;4970911;28;20050;-69
2023/10/15 06:02:02;;;;;;;5.55;1.23;;;6.60;99.90;;;;;;4959868;28;20047;-69
2023/10/15 06:04:28;;;;;;;6.43;0.77;;;6.60;99.90;;;;;;4971932;28;20134;-70
2023/10/15 06:06:54;;;;;;;6.88;0.98;;;6.60;99.90;;;;;;4951044;29;20051;-69
2023/10/15 06:09:20;;;;;;;4.25;0.73;;;6.70;99.90;;;;;;4943148;28;20058;-69
2023/10/15 06:11:46;;;;;;;7.07;0.77;;;6.70;99.90;;;;;;4951516;28;20043;-69
2023/10/15 06:14:12;;;;;;;4.95;0.70;;;6.70;99.90;;;;;;4949586;29;20055;-69
2023/10/15 06:16:37;;;;;;;8.18;1.10;;;6.70;99.90;;;;;;4950161;29;20054;-72
2023/10/15 06:19:03;;;;;;;5.22;1.00;;;6.70;99.90;;;;;;4952617;29;20074;-70
2023/10/15 06:21:29;;;;;;;5.88;0.80;;;6.70;99.90;;;;;;4951010;29;20051;-67
2023/10/15 06:23:54;;;;;;;8.32;0.88;;;6.70;99.90;;;;;;4947108;29;20376;-69
2023/10/15 06:26:20;;;;;;;5.80;0.85;;;6.70;99.90;;;;;;4952744;29;20080;-68
2023/10/15 06:28:46;;;;;;;6.95;0.77;;;6.70;99.90;;;;;;4949981;29;20058;-68
2023/10/15 06:31:11;;;;;;;3.78;0.60;;;6.70;99.90;;;;;;4949230;29;20039;-69
2023/10/15 06:33:41;;;;;;;4.32;0.50;;;7.10;99.90;;;;;;4951850;29;20516;-73
2023/10/15 06:36:09;;;;;;;5.78;0.90;;;6.80;99.90;;;;;;4945915;29;20381;-67
2023/10/15 06:38:35;;;;;;;7.35;1.02;;;6.80;99.90;;;;;;4944057;29;20054;-69
2023/10/15 06:41:01;;;;;;;6.03;0.60;;;6.80;99.90;;;;;;4951841;29;20047;-69
2023/10/15 06:43:27;;;;;;;7.40;0.98;;;6.80;99.90;;;;;;4948904;29;20090;-69
2023/10/15 06:45:53;;;;;;;4.10;0.52;;;6.80;99.90;;;;;;4950573;29;20065;-71
2023/10/15 06:48:22;;;;;;;9.60;1.02;;;6.90;99.90;;;;;;4952317;28;20047;-71
2023/10/15 06:50:48;;;;;;;6.28;0.80;;;6.80;99.90;;;;;;4941165;29;20043;-68
2023/10/15 06:53:14;;;;;;;8.02;0.70;;;6.90;99.90;;;;;;4950728;29;20499;-68
2023/10/15 06:55:42;;;;;;;3.05;0.40;;;6.90;99.90;;;;;;4950873;29;20075;-68
2023/10/15 06:58:10;;;;;;;6.03;0.77;;;7.00;99.90;;;;;;4946881;29;20087;-68
2023/10/15 07:00:36;;;;;;;4.28;0.60;;;6.90;99.90;;;;;;4947160;29;20506;-68
2023/10/15 07:03:02;;;;;;;5.22;1.00;;;7.00;99.90;;;;;;4951250;29;20170;-68
2023/10/15 07:05:28;;;;;;;4.53;0.65;;;7.00;99.90;;;;;;4946368;29;20748;-69
2023/10/15 07:07:56;;;;;;;6.75;0.63;;;7.00;99.90;;;;;;4966382;28;20061;-68
2023/10/15 07:10:22;;;;;;;5.30;0.77;;;7.00;99.90;;;;;;4952936;28;20136;-69
2023/10/15 07:12:50;;;;;;;3.85;0.73;;;7.00;99.90;;;;;;4965449;28;20034;-69
2023/10/15 07:15:17;;;;;;;6.22;0.63;;;7.00;99.90;;;;;;4946844;28;20051;-68
2023/10/15 07:17:44;;;;;;;4.10;0.60;;;7.00;99.90;;;;;;4949492;28;20148;-68
2023/10/15 07:20:26;;;;;;;4.63;0.70;;;7.00;99.90;;;;;;4970020;28;20099;-68
2023/10/15 07:22:53;;;;;;;10.77;0.70;;;6.90;99.90;;;;;;4965264;28;20046;-69
2023/10/15 07:25:20;;;;;;;6.38;1.08;;;7.00;99.90;;;;;;4970145;28;20050;-69
2023/10/15 07:27:48;;;;;;;3.97;0.80;;;6.90;99.90;;;;;;4966904;28;20122;-68
2023/10/15 07:30:21;;;;;;;5.30;0.80;;;6.90;99.90;;;;;;4964266;28;20094;-70
2023/10/15 07:32:48;;;;;;;6.32;0.63;;;6.90;99.90;;;;;;4922459;28;20058;-70
2023/10/15 07:35:15;;;;;;;3.22;0.60;;;6.90;99.90;;;;;;4964268;28;20055;-72
2023/10/15 07:37:45;;;;;;;6.25;0.70;;;6.90;99.90;;;;;;4964385;28;20051;-67
2023/10/15 07:40:19;;;;;;;4.63;0.75;;;6.90;99.90;;;;;;4970866;28;20479;-68
2023/10/15 07:42:47;;;;;;;5.07;1.10;;;6.90;99.90;;;;;;4949307;28;20078;-69
2023/10/15 07:45:13;;;;;;;4.78;0.90;;;6.90;99.90;;;;;;4945982;28;20058;-69
2023/10/15 07:47:39;;;;;;;7.47;0.98;;;6.90;99.90;;;;;;4962767;28;20105;-68
2023/10/15 07:50:13;;;;;;;7.18;1.20;;;6.90;99.90;;;;;;4954294;28;20398;-69
2023/10/15 07:52:39;;;;;;;4.30;0.73;;;7.00;99.90;;;;;;4945045;28;20491;-70
2023/10/15 07:55:10;;;;;;;6.22;1.02;;;7.00;99.90;;;;;;4970766;28;20051;-68
2023/10/15 07:57:37;;;;;;;6.80;1.10;;;7.00;99.90;;;;;;4969191;28;20053;-69
2023/10/15 08:00:06;;;;;;;7.80;1.02;;;7.00;99.90;;;;;;4958365;28;20043;-70
2023/10/15 08:02:32;;;;;;;6.47;0.80;;;7.20;99.90;;;;;;4969863;28;20057;-68
2023/10/15 08:04:58;;;;;;;4.28;0.90;;;7.20;99.90;;;;;;4966917;28;20050;-68
2023/10/15 08:07:23;;;;;;;8.25;1.08;;;7.30;99.90;;;;;;4965233;28;20050;-70
2023/10/15 08:09:52;;;;;;;4.18;0.70;;;7.40;99.90;;;;;;4969958;28;20118;-71
2023/10/15 08:12:18;;;;;;;4.82;0.95;;;7.50;99.90;;;;;;4968899;28;20134;-72
2023/10/15 08:14:47;;;;;;;7.95;1.33;;;7.50;99.90;;;;;;4969984;28;20157;-69
2023/10/15 08:17:16;;;;;;;6.68;0.98;;;7.40;99.90;;;;;;4936438;28;20050;-69
2023/10/15 08:19:41;;;;;;;5.45;0.93;;;7.70;99.90;;;;;;4967426;28;20043;-68
2023/10/15 08:22:08;;;;;;;5.97;1.20;;;7.40;99.90;;;;;;4970389;28;20162;-68
2023/10/15 08:24:35;;;;;;;4.72;1.58;;;7.50;99.90;;;;;;4949935;28;20038;-67
2023/10/15 08:27:00;;;;;;;4.28;0.77;;;7.50;99.90;;;;;;4961448;28;20050;-67
2023/10/15 08:29:26;;;;;;;7.25;0.80;;;7.50;99.90;;;;;;4970185;28;20406;-70
2023/10/15 08:31:51;;;;;;;5.78;0.82;;;7.50;99.90;;;;;;4942741;28;20043;-68
2023/10/15 08:34:17;;;;;;;7.57;1.00;;;7.50;99.90;;;;;;4959894;28;20055;-70
2023/10/15 08:36:43;;;;;;;11.00;1.42;;;8.00;99.90;;;;;;4946322;28;20055;-67
2023/10/15 08:39:09;;;;;;;4.25;0.68;;;7.50;99.90;;;;;;4963824;28;20042;-69
2023/10/15 08:41:38;;;;;;;4.85;0.90;;;7.50;99.90;;;;;;4960493;28;20043;-68
2023/10/15 08:44:07;;;;;;;9.43;1.02;;;7.50;99.90;;;;;;4943100;29;20039;-67
2023/10/15 08:46:37;;;;;;;6.05;1.10;;;7.60;99.90;;;;;;4962058;28;20154;-67
2023/10/15 08:49:08;;;;;;;7.95;0.85;;;7.60;99.90;;;;;;4961670;28;20129;-70
2023/10/15 08:51:35;;;;;;;8.75;0.80;;;7.80;99.90;;;;;;4944921;28;20521;-69
2023/10/15 08:54:02;;;;;;;10.95;1.05;;;8.10;99.90;;;;;;4961602;28;20050;-68
2023/10/15 08:56:33;;;;;;;7.07;1.48;;;8.30;99.90;;;;;;4958899;28;20047;-67
2023/10/15 08:59:00;;;;;;;7.40;1.33;;;8.60;99.90;;;;;;4947007;28;20049;-72
2023/10/15 09:01:26;;;;;;;7.55;1.20;;;8.80;99.90;;;;;;4956793;28;20487;-69
2023/10/15 09:03:52;;;;;;;7.88;0.90;;;8.90;99.90;;;;;;4945324;28;20048;-69
2023/10/15 09:06:22;;;;;;;6.68;0.80;;;9.10;99.90;;;;;;4946376;28;20047;-69
2023/10/15 09:08:50;;;;;;;8.98;1.10;;;9.00;99.90;;;;;;4962126;28;20051;-68
2023/10/15 09:11:22;;;;;;;6.03;1.15;;;9.10;99.90;;;;;;4959829;28;20139;-69
2023/10/15 09:13:51;;;;;;;8.82;0.98;;;9.20;99.90;;;;;;4962737;28;20035;-69
2023/10/15 09:16:19;;;;;;;13.55;0.98;;;9.30;99.90;;;;;;4952976;28;20082;-69
2023/10/15 09:18:45;;;;;;;7.07;1.10;;;9.20;99.90;;;;;;4950002;28;20055;-69
2023/10/15 09:21:23;;;;;;;9.98;1.55;;;9.30;99.90;;;;;;4960483;28;20116;-67
2023/10/15 09:23:50;;;;;;;8.15;1.85;;;9.40;99.90;;;;;;4956180;28;20114;-69
2023/10/15 09:26:16;;;;;;;10.65;1.27;;;9.40;99.90;;;;;;4944932;28;20162;-68
2023/10/15 09:28:42;;;;;;;11.48;1.17;;;9.50;99.90;;;;;;4962705;28;20433;-69
2023/10/15 09:31:10;;;;;;;5.75;1.10;;;9.60;99.90;;;;;;4954495;28;20094;-68
2023/10/15 09:33:37;;;;;;;10.10;1.02;;;9.90;99.90;;;;;;4952352;28;20066;-69
2023/10/15 09:36:05;;;;;;;6.28;0.90;;;9.90;99.90;;;;;;4962670;28;20031;-70
2023/10/15 09:38:35;;;;;;;7.10;0.70;;;10.20;99.90;;;;;;4951739;28;20086;-70
2023/10/15 09:41:02;;;;;;;3.75;0.60;;;10.50;99.90;;;;;;4950781;28;20063;-68
2023/10/15 09:43:31;;;;;;;5.18;0.90;;;10.70;99.90;;;;;;4950813;28;20047;-68
2023/10/15 09:45:58;;;;;;;5.45;0.60;;;10.60;99.90;;;;;;4948116;28;20050;-68
2023/10/15 09:48:27;;;;;;;8.18;0.93;;;10.80;99.90;;;;;;4953874;28;20089;-69
2023/10/15 09:50:57;;;;;;;4.47;0.80;;;11.10;99.90;;;;;;4963305;28;20047;-69
2023/10/15 09:53:34;;;;;;;6.95;0.90;;;11.30;99.90;;;;;;4943349;28;20053;-68
2023/10/15 09:56:07;;;;;;;7.47;0.70;;;11.50;99.90;;;;;;4965950;28;20047;-69
2023/10/15 09:58:34;;;;;;;5.53;0.60;;;11.30;99.90;;;;;;4965821;28;20043;-67
2023/10/15 10:01:30;;;;;;;5.00;1.00;;;11.10;99.90;;;;;;4964284;28;20053;-69
2023/10/15 10:04:18;;;;;;;4.13;0.80;;;10.80;99.90;;;;;;4886205;29;20057;-68
2023/10/15 10:06:53;;;;;;;5.55;1.00;;;10.60;99.90;;;;;;4872157;29;20136;-69
2023/10/15 10:09:54;;;;;;;8.15;1.23;;;10.50;99.90;;;;;;4887088;29;20088;-68
2023/10/15 10:12:43;;;;;;;7.30;0.77;;;10.50;99.90;;;;;;4888031;29;20056;-68
2023/10/15 10:15:23;;;;;;;10.10;1.00;;;10.60;99.90;;;;;;4850366;29;20320;-66
2023/10/15 10:17:50;;;;;;;4.85;0.82;;;10.90;99.90;;;;;;4868514;29;20521;-68
2023/10/15 10:20:19;;;;;;;6.70;1.13;;;11.30;99.90;;;;;;4860637;29;20049;-68
2023/10/15 10:23:02;;;;;;;7.50;0.90;;;11.50;99.90;;;;;;4888166;29;20554;-68
2023/10/15 10:25:39;;;;;;;2.10;0.50;;;11.40;99.90;;;;;;4877204;29;20053;-68
2023/10/15 10:28:21;;;;;;;2.63;0.50;;;11.40;99.90;;;;;;4884399;29;20057;-68
2023/10/15 10:30:55;;;;;;;2.47;0.35;;;11.40;99.90;;;;;;4887030;29;20048;-68
2023/10/15 10:33:49;;;;;;;1.58;0.35;;;11.50;99.90;;;;;;4885447;29;20057;-69
2023/10/15 10:36:19;;;;;;;4.63;0.60;;;11.30;99.90;;;;;;4866946;29;20053;-69
2023/10/15 10:38:57;;;;;;;4.20;0.52;;;11.50;99.90;;;;;;4887097;29;20077;-68
2023/10/15 10:41:36;;;;;;;1.50;0.50;;;12.00;99.90;;;;;;4948757;28;20165;-68
2023/10/15 10:44:03;;;;;;;4.30;0.70;;;11.70;99.90;;;;;;4952663;28;20035;-72
2023/10/15 10:46:29;;;;;;;4.30;0.50;;;11.90;99.90;;;;;;4958349;28;20039;-68
2023/10/15 10:49:07;;;;;;;2.67;0.50;;;12.10;99.90;;;;;;4955882;28;20046;-69
2023/10/15 10:51:36;;;;;;;2.83;0.57;;;12.20;99.90;;;;;;4939492;28;20390;-69
2023/10/15 10:54:03;;;;;;;2.47;0.60;;;12.30;99.90;;;;;;4955102;28;20479;-70
2023/10/15 10:56:41;;;;;;;2.55;0.60;;;12.30;99.90;;;;;;4953719;28;20261;-72
2023/10/15 10:59:07;;;;;;;3.90;0.50;;;12.30;99.90;;;;;;4947775;28;20511;-70
2023/10/15 11:01:39;;;;;;;4.65;0.70;;;12.40;99.90;;;;;;4953323;28;20742;-71
2023/10/15 11:04:09;;;;;;;6.47;0.80;;;12.60;99.90;;;;;;4934847;29;20098;-70
2023/10/15 11:06:39;;;;;;;2.03;0.50;;;12.60;99.90;;;;;;4967963;28;20194;-70
2023/10/15 11:09:22;;;;;;;5.45;0.80;;;12.70;99.90;;;;;;4968518;28;20112;-71
2023/10/15 11:11:50;;;;;;;7.93;1.00;;;12.80;99.90;;;;;;4957963;28;20565;-69
2023/10/15 11:14:18;;;;;;;5.60;0.73;;;13.10;99.90;;;;;;4945863;28;20054;-69
2023/10/15 11:16:44;;;;;;;5.22;1.10;;;13.10;99.90;;;;;;4963790;28;20043;-70
2023/10/15 11:19:25;;;;;;;4.05;0.80;;;13.20;99.90;;;;;;4946230;28;20052;-69
2023/10/15 11:21:52;;;;;;;7.95;1.30;;;13.20;99.90;;;;;;4969744;28;20129;-76
2023/10/15 11:24:20;;;;;;;6.97;1.27;;;13.30;99.90;;;;;;4951172;28;20047;-69
2023/10/15 11:26:46;;;;;;;3.95;0.60;;;13.30;99.90;;;;;;4965677;28;20394;-70
2023/10/15 11:29:14;;;;;;;5.32;1.00;;;13.50;99.90;;;;;;4960849;28;20054;-72
2023/10/15 11:31:44;;;;;;;4.68;1.08;;;13.70;99.90;;;;;;4968035;28;20129;-69
2023/10/15 11:34:11;;;;;;;10.15;1.10;;;13.80;99.90;;;;;;4965527;28;20054;-74
2023/10/15 11:36:38;;;;;;;9.35;1.77;;;13.70;99.90;;;;;;4967199;28;20050;-69
2023/10/15 11:39:09;;;;;;;6.25;1.40;;;13.60;99.90;;;;;;4947691;28;20517;-69
2023/10/15 11:41:36;;;;;;;7.45;1.30;;;13.20;99.90;;;;;;4966132;28;20094;-69
2023/10/15 11:44:08;;;;;;;10.13;1.60;;;12.80;99.90;;;;;;4962332;28;20055;-69
2023/10/15 11:46:37;;;;;;;5.25;1.35;;;12.70;99.90;;;;;;4946214;28;20055;-68
2023/10/15 11:49:03;;;;;;;4.72;0.80;;;12.60;99.90;;;;;;4963735;28;20488;-69
2023/10/15 11:51:30;;;;;;;5.85;0.80;;;12.60;99.90;;;;;;4961898;28;20110;-69
2023/10/15 11:53:57;;;;;;;6.13;0.70;;;12.70;99.90;;;;;;4958186;28;20070;-68
2023/10/15 11:56:26;;;;;;;7.03;1.05;;;13.00;99.90;;;;;;4952214;28;20043;-67
2023/10/15 11:58:52;;;;;;;4.75;0.75;;;13.10;99.90;;;;;;4959131;28;20046;-70
2023/10/15 12:01:17;;;;;;;7.28;1.17;;;13.30;99.90;;;;;;4959473;28;20039;-71
2023/10/15 12:03:43;;;;;;;8.27;1.70;;;13.50;99.90;;;;;;4967967;28;20051;-67
2023/10/15 12:06:09;;;;;;;5.63;1.08;;;13.70;99.90;;;;;;4959790;28;20062;-68
2023/10/15 12:08:35;;;;;;;7.75;1.15;;;13.90;99.90;;;;;;4950512;28;20490;-69
2023/10/15 12:11:00;;;;;;;6.53;1.13;;;14.00;99.90;;;;;;4942633;28;20887;-67
2023/10/15 12:13:26;;;;;;;9.00;0.90;;;14.30;99.90;;;;;;4954051;28;20126;-68
2023/10/15 12:15:53;;;;;;;6.32;1.15;;;14.40;99.90;;;;;;4964932;28;20042;-69
2023/10/15 12:18:18;;;;;;;6.80;0.75;;;14.40;99.90;;;;;;4942584;29;20047;-68
2023/10/15 12:20:44;;;;;;;5.70;0.90;;;14.20;99.90;;;;;;4951055;28;20509;-69
2023/10/15 12:23:09;;;;;;;13.60;1.40;;;14.00;99.90;;;;;;4959019;28;20047;-70
2023/10/15 12:25:38;;;;;;;7.47;1.08;;;13.60;99.90;;;;;;4966005;28;20034;-69
2023/10/15 12:28:08;;;;;;;11.77;1.02;;;13.10;99.90;;;;;;4944765;28;20046;-70
2023/10/15 12:30:34;;;;;;;8.02;1.77;;;12.90;99.90;;;;;;4962927;28;20090;-69
2023/10/15 12:33:00;;;;;;;8.45;0.82;;;12.70;99.90;;;;;;4945284;28;20042;-69
2023/10/15 12:35:27;;;;;;;4.90;0.90;;;12.60;99.90;;;;;;4960030;28;20483;-69
2023/10/15 12:38:02;;;;;;;3.25;0.60;;;12.40;99.90;;;;;;4959426;28;20122;-71
2023/10/15 12:40:31;;;;;;;3.00;0.57;;;12.30;99.90;;;;;;4950744;28;20086;-69
2023/10/15 12:43:01;;;;;;;4.10;0.60;;;12.20;99.90;;;;;;4959230;28;20725;-68
2023/10/15 12:45:27;;;;;;;4.07;0.68;;;12.00;99.90;;;;;;4961755;28;20138;-69
2023/10/15 12:47:53;;;;;;;4.35;0.70;;;12.40;99.90;;;;;;4958246;28;20122;-71
2023/10/15 12:50:19;;;;;;;4.57;0.50;;;12.40;99.90;;;;;;4967446;28;20494;-70
2023/10/15 12:52:46;;;;;;;6.07;0.90;;;12.80;99.90;;;;;;4960027;28;20100;-69
2023/10/15 12:55:18;;;;;;;6.38;0.70;;;12.80;99.90;;;;;;4954237;28;20083;-70
2023/10/15 12:57:46;;;;;;;5.38;0.77;;;12.80;99.90;;;;;;4937209;28;20054;-73
2023/10/15 13:00:19;;;;;;;6.63;1.13;;;12.50;99.90;;;;;;4954448;28;20055;-68
2023/10/15 13:02:49;;;;;;;5.40;1.05;;;12.40;99.90;;;;;;4954926;28;20051;-70
2023/10/15 13:05:15;;;;;;;4.32;1.00;;;12.40;99.90;;;;;;4953179;28;20109;-72
2023/10/15 13:07:41;;;;;;;5.82;1.33;;;12.40;99.90;;;;;;4953118;28;20055;-71
2023/10/15 13:10:09;;;;;;;7.75;0.80;;;12.70;99.90;;;;;;4952404;28;20759;-71
2023/10/15 13:12:36;;;;;;;5.70;1.10;;;13.10;99.90;;;;;;4951653;28;20058;-70
2023/10/15 13:15:02;;;;;;;6.28;1.10;;;13.30;99.90;;;;;;4959638;28;20430;-77
2023/10/15 13:17:27;;;;;;;7.78;0.90;;;13.50;99.90;;;;;;4951788;28;20086;-70
2023/10/15 13:19:53;;;;;;;3.90;0.63;;;13.80;99.90;;;;;;4938882;28;20055;-69
2023/10/15 13:22:20;;;;;;;4.75;0.88;;;14.00;99.90;;;;;;4955129;28;20051;-68
2023/10/15 13:24:46;;;;;;;3.83;1.02;;;14.10;99.90;;;;;;4954938;28;20051;-69
2023/10/15 13:27:12;;;;;;;5.93;0.73;;;14.00;99.90;;;;;;4962514;28;20046;-70
2023/10/15 13:29:38;;;;;;;5.60;0.90;;;14.00;99.90;;;;;;4959447;28;20043;-69
2023/10/15 13:32:04;;;;;;;8.63;0.93;;;14.00;99.90;;;;;;4965638;28;20038;-70